Pinto, MD

3:21 PM EST on January 28, 2015 (GMT -0500)
Petersburg | Change Station
CLOSE
Current Station
Airport
Location: Petersburg,
Elevation: 961 ft
Nearby Weather Stations

Elev 961 ft 38.99 °N, 79.15 °W | Updated 26 minutes ago

Clear
Clear
34 °F
Feels Like 26 °F
N
9
Wind Variable Wind from North

Today
High -- | Low -- °F
--% Chance of Precip.
Yesterday
High -- | Low -- °F
Precip. -- in
7:26 AM 5:30 PM
Waxing Gibbous, 67% visible
Pressure 30.27 in
Visibility 10.0 miles
Clouds Clear
Windchill 26 °F
Dew Point -1 °F
Humidity 23%
Rainfall 0.04 in
Snow Depth Not available.
UV 2 out of 12
Pollen .10 out of 12
Air Quality Not available.
Flu Activity Not available.
METAR KW99 281955Z AUTO 35008KT 10SM CLR 01/M18 A3027 RMK AO2 T00091182 PNO

More Conditions Fewer Conditions

Pressure 30.27 in
Visibility 10.0 miles
Clouds Clear
Windchill 26 °F
Dew Point -1 °F
Humidity 23%
Rainfall 0.04 in
Snow Depth Not available.
UV 2 out of 12
Pollen .10 out of 12
Air Quality Not available.
Flu Activity Not available.
METAR KW99 281955Z AUTO 35008KT 10SM CLR 01/M18 A3027 RMK AO2 T00091182 PNO

More Conditions Fewer Conditions

10-Day Weather Forecast

Almanac

Astronomy

Jan. 28, 2015 Rise Set
Actual Time
Civil Twilight
Nautical Twilight
Astronomical Twilight
Moon
Length of Visible Light
Length of Day
Tomorrow will be .
, % of the Moon is Illuminated

Today's Extremes

State Highs State Lows

Community

WunderPhotos

Upload Photos

1,791,251 photos uploaded!

WunderBlogs® & News

Nearby

Air Quality

  Air Quality AQ Index Pollutant
Not available.

Snow Depth

Station Depth Elevation

Earthquake Activity

City Distance Mag. Time & Date
Minimum magnitude displayed is 2.5.

Coastal Water Temperatures

Place Temperature

Nearby Weather Stations